F/V Le Dolmen — FHMD — position and weather

sailwx.info

Track history (hours):
 
Tides and Currents Weather Stations Pressure Air Temp Water Temp Dewpoint Dewpoint Depression Visibility Wind Speed Wind Dir Waves Ship Positions

F/V Le Dolmen

Last reported at 2016-May-04 04:12 UTC. Time now 2016-May-04 09:46 UTC.
Position N 46°43' W 003°03'.

Length 18 m.

Type: Fishing. MMSI: 228374000.

Date/timePositionNaut miles runAvg speedWind from/ knotsBaromVisibWave heightAir tempDewpointWater temp
2016-May-04 04:12N 46°43' W 003°03'3 4.1
2016-May-04 03:21N 46°40' W 003°01'34 1.4
2016-May-03 02:33N 47°10' W 003°21'10 9.6
2016-May-03 01:33N 47°20' W 003°22'1010.0
2016-May-03 00:33N 47°30' W 003°22'1010.0
2016-May-02 23:34N 47°40' W 003°22'4 4.0
2016-May-02 22:34N 47°44' W 003°22'0 0.0
2016-May-02 21:34N 47°44' W 003°22'0 0.0
2016-May-02 20:34N 47°44' W 003°22'0 0.0
2016-May-02 19:34N 47°44' W 003°22'0 0.0
2016-May-02 18:34N 47°44' W 003°22'0 0.0
2016-May-02 17:34N 47°44' W 003°22'0 0.0
2016-May-02 16:33N 47°44' W 003°22'0 0.0
2016-May-02 15:33N 47°44' W 003°22'0 0.0
2016-May-02 14:34N 47°44' W 003°22'0 0.0
2016-May-02 13:34N 47°44' W 003°22'0 0.0
2016-May-02 12:33N 47°44' W 003°22'0 0.0
2016-May-02 11:34N 47°44' W 003°22'0 0.0
2016-May-02 10:34N 47°44' W 003°22'0 0.0
2016-May-02 09:34N 47°44' W 003°22'0 0.0
2016-May-02 08:33N 47°44' W 003°22'0 0.0
2016-May-02 07:33N 47°44' W 003°22'0 0.0
2016-May-02 06:33N 47°44' W 003°22'0 0.0
2016-May-02 05:33N 47°44' W 003°22'0 0.0
2016-May-02 04:34N 47°44' W 003°22'0 0.0
2016-May-02 03:34N 47°44' W 003°22'0 0.0
2016-May-02 02:34N 47°44' W 003°22'0 0.0
2016-May-02 01:34N 47°44' W 003°22'0 0.0
2016-May-02 00:34N 47°44' W 003°22'0 0.0
2016-May-01 23:34N 47°44' W 003°22'0 0.0
2016-May-01 22:34N 47°44' W 003°22'0 0.0
2016-May-01 21:34N 47°44' W 003°22'0 0.0
2016-May-01 20:33N 47°44' W 003°22'0 0.0
2016-May-01 19:33N 47°44' W 003°22'0 0.0
2016-May-01 18:33N 47°44' W 003°22'0 0.0
2016-May-01 17:34N 47°44' W 003°22'0 0.0
2016-May-01 16:34N 47°44' W 003°22'0 0.0
2016-May-01 15:33N 47°44' W 003°22'0 0.0
2016-May-01 14:33N 47°44' W 003°22'0 0.0
2016-May-01 13:33N 47°44' W 003°22'0 0.0
2016-May-01 12:34N 47°44' W 003°22'0 0.0
2016-May-01 11:33N 47°44' W 003°22'0 0.0
2016-May-01 10:33N 47°44' W 003°22'0 0.0
2016-May-01 09:34N 47°44' W 003°22'0 0.0
2016-May-01 08:34N 47°44' W 003°22'0 0.0
2016-May-01 07:34N 47°44' W 003°22'0 0.0
2016-May-01 06:33N 47°44' W 003°22'0 0.0
2016-May-01 05:34N 47°44' W 003°22'0 0.0
2016-May-01 04:33N 47°44' W 003°22'0 0.0
2016-May-01 03:34N 47°44' W 003°22'0 0.0
2016-May-01 02:34N 47°44' W 003°22'0 0.0
2016-May-01 01:34N 47°44' W 003°22'0 0.0
2016-May-01 00:33N 47°44' W 003°22'0 0.0
2016-Apr-30 23:34N 47°44' W 003°22'0 0.0
2016-Apr-30 22:34N 47°44' W 003°22'0 0.0
2016-Apr-30 21:34N 47°44' W 003°22'0 0.0
2016-Apr-30 20:34N 47°44' W 003°22'0 0.0
2016-Apr-30 19:33N 47°44' W 003°22'0 0.0
2016-Apr-30 18:34N 47°44' W 003°22'0 0.0
2016-Apr-30 17:34N 47°44' W 003°22'0 0.0
2016-Apr-30 16:34N 47°44' W 003°22'0 0.0
2016-Apr-30 15:34N 47°44' W 003°22'0 0.0
2016-Apr-30 14:34N 47°44' W 003°22'0 0.0
2016-Apr-30 13:33N 47°44' W 003°22'0 0.0
2016-Apr-30 12:33N 47°44' W 003°22'0 0.0
2016-Apr-30 11:34N 47°44' W 003°22'0 0.0
2016-Apr-30 10:33N 47°44' W 003°22'0 0.0
2016-Apr-30 09:34N 47°44' W 003°22'0 0.0
2016-Apr-30 08:34N 47°44' W 003°22'0 0.0
2016-Apr-30 07:34N 47°44' W 003°22'0 0.0
2016-Apr-30 06:33N 47°44' W 003°22'0 0.0
2016-Apr-30 05:34N 47°44' W 003°22'3 3.4
2016-Apr-30 04:34N 47°40' W 003°22'9 9.1
2016-Apr-30 03:34N 47°32' W 003°15'9 9.3
2016-Apr-30 02:33N 47°25' W 003°07'9 9.3
2016-Apr-30 01:33N 47°19' W 002°56'9 9.5
2016-Apr-30 00:33N 47°19' W 002°42'8 3.5
2016-Apr-29 22:18N 47°21' W 002°31'2 1.4
2016-Apr-29 20:33N 47°19' W 002°33'8 8.4
2016-Apr-29 19:33N 47°12' W 002°41'9 9.4
2016-Apr-29 18:33N 47°06' W 002°51'8 0.2
2016-Apr-28 01:33N 47°07' W 002°40'1010.0
2016-Apr-28 00:33N 47°17' W 002°35'5 2.2
2016-Apr-27 22:24N 47°21' W 002°31'3 3.4
2016-Apr-27 21:31N 47°18' W 002°31'4 4.3
2016-Apr-27 20:33N 47°16' W 002°36'9 8.6
2016-Apr-27 19:33N 47°09' W 002°44'9 8.9
2016-Apr-27 18:33N 47°02' W 002°51'6 0.1
2016-Apr-25 23:33N 47°06' W 002°44'9 8.7
2016-Apr-25 22:33N 47°14' W 002°38'9 4.1
2016-Apr-25 20:28N 47°21' W 002°31'1 0.6
2016-Apr-25 19:33N 47°20' W 002°31'2 2.3
2016-Apr-25 18:31N 47°18' W 002°31'3 2.7
2016-Apr-25 17:33N 47°18' W 002°35'9 8.9
2016-Apr-25 16:33N 47°10' W 002°39'  
Track history (hours):
 
Tides and Currents Weather Stations Pressure Air Temp Water Temp Dewpoint Dewpoint Depression Visibility Wind Speed Wind Dir Waves Ship Positions

F/V Le Dolmen

Last reported at 2016-May-04 04:12 UTC. Time now 2016-May-04 09:46 UTC.
Position N 46°43' W 003°03'.

Length 18 m.

Type: Fishing. MMSI: 228374000.

Date/timePositionNaut miles runAvg speedWind from/ knotsBaromVisibWave heightAir tempDewpointWater temp
2016-May-04 04:12N 46°43' W 003°03'3 4.1
2016-May-04 03:21N 46°40' W 003°01'34 1.4
2016-May-03 02:33N 47°10' W 003°21'10 9.6
2016-May-03 01:33N 47°20' W 003°22'1010.0
2016-May-03 00:33N 47°30' W 003°22'1010.0
2016-May-02 23:34N 47°40' W 003°22'4 4.0
2016-May-02 22:34N 47°44' W 003°22'0 0.0
2016-May-02 21:34N 47°44' W 003°22'0 0.0
2016-May-02 20:34N 47°44' W 003°22'0 0.0
2016-May-02 19:34N 47°44' W 003°22'0 0.0
2016-May-02 18:34N 47°44' W 003°22'0 0.0
2016-May-02 17:34N 47°44' W 003°22'0 0.0
2016-May-02 16:33N 47°44' W 003°22'0 0.0
2016-May-02 15:33N 47°44' W 003°22'0 0.0
2016-May-02 14:34N 47°44' W 003°22'0 0.0
2016-May-02 13:34N 47°44' W 003°22'0 0.0
2016-May-02 12:33N 47°44' W 003°22'0 0.0
2016-May-02 11:34N 47°44' W 003°22'0 0.0
2016-May-02 10:34N 47°44' W 003°22'0 0.0
2016-May-02 09:34N 47°44' W 003°22'0 0.0
2016-May-02 08:33N 47°44' W 003°22'0 0.0
2016-May-02 07:33N 47°44' W 003°22'0 0.0
2016-May-02 06:33N 47°44' W 003°22'0 0.0
2016-May-02 05:33N 47°44' W 003°22'0 0.0
2016-May-02 04:34N 47°44' W 003°22'0 0.0
2016-May-02 03:34N 47°44' W 003°22'0 0.0
2016-May-02 02:34N 47°44' W 003°22'0 0.0
2016-May-02 01:34N 47°44' W 003°22'0 0.0
2016-May-02 00:34N 47°44' W 003°22'0 0.0
2016-May-01 23:34N 47°44' W 003°22'0 0.0
2016-May-01 22:34N 47°44' W 003°22'0 0.0
2016-May-01 21:34N 47°44' W 003°22'0 0.0
2016-May-01 20:33N 47°44' W 003°22'0 0.0
2016-May-01 19:33N 47°44' W 003°22'0 0.0
2016-May-01 18:33N 47°44' W 003°22'0 0.0
2016-May-01 17:34N 47°44' W 003°22'0 0.0
2016-May-01 16:34N 47°44' W 003°22'0 0.0
2016-May-01 15:33N 47°44' W 003°22'0 0.0
2016-May-01 14:33N 47°44' W 003°22'0 0.0
2016-May-01 13:33N 47°44' W 003°22'0 0.0
2016-May-01 12:34N 47°44' W 003°22'0 0.0
2016-May-01 11:33N 47°44' W 003°22'0 0.0
2016-May-01 10:33N 47°44' W 003°22'0 0.0
2016-May-01 09:34N 47°44' W 003°22'0 0.0
2016-May-01 08:34N 47°44' W 003°22'0 0.0
2016-May-01 07:34N 47°44' W 003°22'0 0.0
2016-May-01 06:33N 47°44' W 003°22'0 0.0
2016-May-01 05:34N 47°44' W 003°22'0 0.0
2016-May-01 04:33N 47°44' W 003°22'0 0.0
2016-May-01 03:34N 47°44' W 003°22'0 0.0
2016-May-01 02:34N 47°44' W 003°22'0 0.0
2016-May-01 01:34N 47°44' W 003°22'0 0.0
2016-May-01 00:33N 47°44' W 003°22'0 0.0
2016-Apr-30 23:34N 47°44' W 003°22'0 0.0
2016-Apr-30 22:34N 47°44' W 003°22'0 0.0
2016-Apr-30 21:34N 47°44' W 003°22'0 0.0
2016-Apr-30 20:34N 47°44' W 003°22'0 0.0
2016-Apr-30 19:33N 47°44' W 003°22'0 0.0
2016-Apr-30 18:34N 47°44' W 003°22'0 0.0
2016-Apr-30 17:34N 47°44' W 003°22'0 0.0
2016-Apr-30 16:34N 47°44' W 003°22'0 0.0
2016-Apr-30 15:34N 47°44' W 003°22'0 0.0
2016-Apr-30 14:34N 47°44' W 003°22'0 0.0
2016-Apr-30 13:33N 47°44' W 003°22'0 0.0
2016-Apr-30 12:33N 47°44' W 003°22'0 0.0
2016-Apr-30 11:34N 47°44' W 003°22'0 0.0
2016-Apr-30 10:33N 47°44' W 003°22'0 0.0
2016-Apr-30 09:34N 47°44' W 003°22'0 0.0
2016-Apr-30 08:34N 47°44' W 003°22'0 0.0
2016-Apr-30 07:34N 47°44' W 003°22'0 0.0
2016-Apr-30 06:33N 47°44' W 003°22'0 0.0
2016-Apr-30 05:34N 47°44' W 003°22'3 3.4
2016-Apr-30 04:34N 47°40' W 003°22'9 9.1
2016-Apr-30 03:34N 47°32' W 003°15'9 9.3
2016-Apr-30 02:33N 47°25' W 003°07'9 9.3
2016-Apr-30 01:33N 47°19' W 002°56'9 9.5
2016-Apr-30 00:33N 47°19' W 002°42'8 3.5
2016-Apr-29 22:18N 47°21' W 002°31'2 1.4
2016-Apr-29 20:33N 47°19' W 002°33'8 8.4
2016-Apr-29 19:33N 47°12' W 002°41'9 9.4
2016-Apr-29 18:33N 47°06' W 002°51'8 0.2
2016-Apr-28 01:33N 47°07' W 002°40'1010.0
2016-Apr-28 00:33N 47°17' W 002°35'5 2.2
2016-Apr-27 22:24N 47°21' W 002°31'3 3.4
2016-Apr-27 21:31N 47°18' W 002°31'4 4.3
2016-Apr-27 20:33N 47°16' W 002°36'9 8.6
2016-Apr-27 19:33N 47°09' W 002°44'9 8.9
2016-Apr-27 18:33N 47°02' W 002°51'6 0.1
2016-Apr-25 23:33N 47°06' W 002°44'9 8.7
2016-Apr-25 22:33N 47°14' W 002°38'9 4.1
2016-Apr-25 20:28N 47°21' W 002°31'1 0.6
2016-Apr-25 19:33N 47°20' W 002°31'2 2.3
2016-Apr-25 18:31N 47°18' W 002°31'3 2.7
2016-Apr-25 17:33N 47°18' W 002°35'9 8.9
2016-Apr-25 16:33N 47°10' W 002°39'  

Dump ship's entire track history